sensor_id;sensor_type;location;lat;lon;timestamp;temperature;humidity
18541;DHT22;9400;50.924;5.328;2023-03-21T00:02:19;11.00;99.90
18541;DHT22;9400;50.924;5.328;2023-03-21T00:04:49;11.10;99.90
18541;DHT22;9400;50.924;5.328;2023-03-21T00:07:16;11.00;99.90
18541;DHT22;9400;50.924;5.328;2023-03-21T00:09:44;11.00;99.90
18541;DHT22;9400;50.924;5.328;2023-03-21T00:12:13;11.00;99.90
18541;DHT22;9400;50.924;5.328;2023-03-21T00:14:42;10.90;99.90
18541;DHT22;9400;50.924;5.328;2023-03-21T00:17:10;10.90;99.90
18541;DHT22;9400;50.924;5.328;2023-03-21T00:19:38;10.90;99.90
18541;DHT22;9400;50.924;5.328;2023-03-21T00:22:08;10.90;99.90
18541;DHT22;9400;50.924;5.328;2023-03-21T00:24:36;10.90;99.90
18541;DHT22;9400;50.924;5.328;2023-03-21T00:27:04;10.90;99.90
18541;DHT22;9400;50.924;5.328;2023-03-21T00:29:33;10.90;99.90
18541;DHT22;9400;50.924;5.328;2023-03-21T00:32:00;10.90;99.90
18541;DHT22;9400;50.924;5.328;2023-03-21T00:34:28;10.90;99.90
18541;DHT22;9400;50.924;5.328;2023-03-21T00:36:55;11.00;99.90
18541;DHT22;9400;50.924;5.328;2023-03-21T00:39:23;10.90;99.90
18541;DHT22;9400;50.924;5.328;2023-03-21T00:41:50;10.90;99.90
18541;DHT22;9400;50.924;5.328;2023-03-21T00:44:18;10.90;99.90
18541;DHT22;9400;50.924;5.328;2023-03-21T00:46:48;10.90;99.90
18541;DHT22;9400;50.924;5.328;2023-03-21T00:49:15;10.80;99.90
18541;DHT22;9400;50.924;5.328;2023-03-21T00:51:45;10.80;99.90
18541;DHT22;9400;50.924;5.328;2023-03-21T00:54:16;10.90;99.90
18541;DHT22;9400;50.924;5.328;2023-03-21T00:56:44;10.90;99.90
18541;DHT22;9400;50.924;5.328;2023-03-21T00:59:11;10.90;99.90
18541;DHT22;9400;50.924;5.328;2023-03-21T01:01:39;10.90;99.90
18541;DHT22;9400;50.924;5.328;2023-03-21T01:04:08;10.80;99.90
18541;DHT22;9400;50.924;5.328;2023-03-21T01:06:40;10.80;99.90
18541;DHT22;9400;50.924;5.328;2023-03-21T01:09:11;10.70;99.90
18541;DHT22;9400;50.924;5.328;2023-03-21T01:11:39;10.70;99.90
18541;DHT22;9400;50.924;5.328;2023-03-21T01:14:08;10.70;99.90
18541;DHT22;9400;50.924;5.328;2023-03-21T01:16:36;10.80;99.90
18541;DHT22;9400;50.924;5.328;2023-03-21T01:19:05;10.80;99.90
18541;DHT22;9400;50.924;5.328;2023-03-21T01:21:35;10.80;99.90
18541;DHT22;9400;50.924;5.328;2023-03-21T01:24:03;10.90;99.90
18541;DHT22;9400;50.924;5.328;2023-03-21T01:26:31;10.90;99.90
18541;DHT22;9400;50.924;5.328;2023-03-21T01:28:59;10.90;99.90
18541;DHT22;9400;50.924;5.328;2023-03-21T01:31:27;10.90;99.90
18541;DHT22;9400;50.924;5.328;2023-03-21T01:33:54;10.90;99.90
18541;DHT22;9400;50.924;5.328;2023-03-21T01:36:23;10.80;99.90
18541;DHT22;9400;50.924;5.328;2023-03-21T01:38:52;10.80;99.90
18541;DHT22;9400;50.924;5.328;2023-03-21T01:41:24;10.80;99.90
18541;DHT22;9400;50.924;5.328;2023-03-21T01:43:53;10.80;99.90
18541;DHT22;9400;50.924;5.328;2023-03-21T01:46:44;10.70;99.90
18541;DHT22;9400;50.924;5.328;2023-03-21T01:49:17;10.70;99.90
18541;DHT22;9400;50.924;5.328;2023-03-21T01:51:52;10.70;99.90
18541;DHT22;9400;50.924;5.328;2023-03-21T01:54:24;10.70;99.90
18541;DHT22;9400;50.924;5.328;2023-03-21T01:56:53;10.60;99.90
18541;DHT22;9400;50.924;5.328;2023-03-21T01:59:26;10.60;99.90
18541;DHT22;9400;50.924;5.328;2023-03-21T02:01:57;10.60;99.90
18541;DHT22;9400;50.924;5.328;2023-03-21T02:04:27;10.70;99.90
18541;DHT22;9400;50.924;5.328;2023-03-21T02:06:58;10.70;99.90
18541;DHT22;9400;50.924;5.328;2023-03-21T02:09:32;10.70;99.90
18541;DHT22;9400;50.924;5.328;2023-03-21T02:12:00;10.60;99.90
18541;DHT22;9400;50.924;5.328;2023-03-21T02:14:30;10.60;99.90
18541;DHT22;9400;50.924;5.328;2023-03-21T02:17:03;10.70;99.90
18541;DHT22;9400;50.924;5.328;2023-03-21T02:20:20;10.60;99.90
18541;DHT22;9400;50.924;5.328;2023-03-21T02:23:41;10.60;99.90
18541;DHT22;9400;50.924;5.328;2023-03-21T02:26:37;10.60;99.90
18541;DHT22;9400;50.924;5.328;2023-03-21T02:29:16;10.70;99.90
18541;DHT22;9400;50.924;5.328;2023-03-21T02:31:55;10.60;99.90
18541;DHT22;9400;50.924;5.328;2023-03-21T02:34:50;10.60;99.90
18541;DHT22;9400;50.924;5.328;2023-03-21T02:37:27;10.60;99.90
18541;DHT22;9400;50.924;5.328;2023-03-21T02:40:06;10.70;99.90
18541;DHT22;9400;50.924;5.328;2023-03-21T02:42:52;10.70;99.90
18541;DHT22;9400;50.924;5.328;2023-03-21T02:45:24;10.70;99.90
18541;DHT22;9400;50.924;5.328;2023-03-21T02:47:57;10.80;99.90
18541;DHT22;9400;50.924;5.328;2023-03-21T02:50:29;10.90;99.90
18541;DHT22;9400;50.924;5.328;2023-03-21T02:53:00;10.90;99.90
18541;DHT22;9400;50.924;5.328;2023-03-21T02:55:31;10.80;99.90
18541;DHT22;9400;50.924;5.328;2023-03-21T02:58:00;10.80;99.90
18541;DHT22;9400;50.924;5.328;2023-03-21T03:00:31;10.80;99.90
18541;DHT22;9400;50.924;5.328;2023-03-21T03:02:59;10.80;99.90
18541;DHT22;9400;50.924;5.328;2023-03-21T03:05:30;10.80;99.90
18541;DHT22;9400;50.924;5.328;2023-03-21T03:08:10;10.80;99.90
18541;DHT22;9400;50.924;5.328;2023-03-21T03:10:53;10.70;99.90
18541;DHT22;9400;50.924;5.328;2023-03-21T03:13:34;10.70;99.90
18541;DHT22;9400;50.924;5.328;2023-03-21T03:16:09;10.70;99.90
18541;DHT22;9400;50.924;5.328;2023-03-21T03:18:48;10.70;99.90
18541;DHT22;9400;50.924;5.328;2023-03-21T03:21:21;10.70;99.90
18541;DHT22;9400;50.924;5.328;2023-03-21T03:23:54;10.80;99.90
18541;DHT22;9400;50.924;5.328;2023-03-21T03:26:26;10.70;99.90
18541;DHT22;9400;50.924;5.328;2023-03-21T03:28:58;10.70;99.90
18541;DHT22;9400;50.924;5.328;2023-03-21T03:31:31;10.70;99.90
18541;DHT22;9400;50.924;5.328;2023-03-21T03:34:03;10.70;99.90
18541;DHT22;9400;50.924;5.328;2023-03-21T03:36:37;10.80;99.90
18541;DHT22;9400;50.924;5.328;2023-03-21T03:39:09;10.80;99.90
18541;DHT22;9400;50.924;5.328;2023-03-21T03:41:43;10.70;99.90
18541;DHT22;9400;50.924;5.328;2023-03-21T03:44:11;10.70;99.90
18541;DHT22;9400;50.924;5.328;2023-03-21T03:46:43;10.70;99.90
18541;DHT22;9400;50.924;5.328;2023-03-21T03:49:16;10.80;99.90
18541;DHT22;9400;50.924;5.328;2023-03-21T03:51:50;10.80;99.90
18541;DHT22;9400;50.924;5.328;2023-03-21T03:54:23;10.80;99.90
18541;DHT22;9400;50.924;5.328;2023-03-21T03:56:54;10.80;99.90
18541;DHT22;9400;50.924;5.328;2023-03-21T03:59:22;10.70;99.90
18541;DHT22;9400;50.924;5.328;2023-03-21T04:01:49;10.80;99.90
18541;DHT22;9400;50.924;5.328;2023-03-21T04:04:17;10.80;99.90
18541;DHT22;9400;50.924;5.328;2023-03-21T04:06:47;10.90;99.90
18541;DHT22;9400;50.924;5.328;2023-03-21T04:12:25;10.90;99.90
18541;DHT22;9400;50.924;5.328;2023-03-21T04:15:07;11.00;99.90
18541;DHT22;9400;50.924;5.328;2023-03-21T04:17:39;11.00;99.90
18541;DHT22;9400;50.924;5.328;2023-03-21T04:20:25;11.10;99.90
18541;DHT22;9400;50.924;5.328;2023-03-21T04:22:57;11.10;99.90
18541;DHT22;9400;50.924;5.328;2023-03-21T04:25:25;11.20;99.90
18541;DHT22;9400;50.924;5.328;2023-03-21T04:27:55;11.20;99.90
18541;DHT22;9400;50.924;5.328;2023-03-21T04:30:23;11.20;99.90
18541;DHT22;9400;50.924;5.328;2023-03-21T04:32:50;11.10;99.90
18541;DHT22;9400;50.924;5.328;2023-03-21T04:35:22;11.10;99.90
18541;DHT22;9400;50.924;5.328;2023-03-21T04:37:50;11.20;99.90
18541;DHT22;9400;50.924;5.328;2023-03-21T04:40:17;11.10;99.90
18541;DHT22;9400;50.924;5.328;2023-03-21T04:42:46;11.10;99.90
18541;DHT22;9400;50.924;5.328;2023-03-21T04:45:17;11.10;99.90
18541;DHT22;9400;50.924;5.328;2023-03-21T04:47:48;11.20;99.90
18541;DHT22;9400;50.924;5.328;2023-03-21T04:50:15;11.10;99.90
18541;DHT22;9400;50.924;5.328;2023-03-21T04:52:43;11.10;99.90
18541;DHT22;9400;50.924;5.328;2023-03-21T04:55:10;11.10;99.90
18541;DHT22;9400;50.924;5.328;2023-03-21T04:57:39;11.20;99.90
18541;DHT22;9400;50.924;5.328;2023-03-21T05:00:09;11.20;99.90
18541;DHT22;9400;50.924;5.328;2023-03-21T05:02:40;11.20;99.90
18541;DHT22;9400;50.924;5.328;2023-03-21T05:05:08;11.20;99.90
18541;DHT22;9400;50.924;5.328;2023-03-21T05:07:37;11.10;99.90
18541;DHT22;9400;50.924;5.328;2023-03-21T05:12:40;11.00;99.90
18541;DHT22;9400;50.924;5.328;2023-03-21T05:15:08;11.00;99.90
18541;DHT22;9400;50.924;5.328;2023-03-21T05:17:36;11.00;99.90
18541;DHT22;9400;50.924;5.328;2023-03-21T05:20:06;11.00;99.90
18541;DHT22;9400;50.924;5.328;2023-03-21T05:22:36;10.90;99.90
18541;DHT22;9400;50.924;5.328;2023-03-21T05:25:07;11.00;99.90
18541;DHT22;9400;50.924;5.328;2023-03-21T05:27:35;11.00;99.90
18541;DHT22;9400;50.924;5.328;2023-03-21T05:30:06;11.00;99.90
18541;DHT22;9400;50.924;5.328;2023-03-21T05:32:33;11.00;99.90
18541;DHT22;9400;50.924;5.328;2023-03-21T05:35:01;11.00;99.90
18541;DHT22;9400;50.924;5.328;2023-03-21T05:37:30;11.00;99.90
18541;DHT22;9400;50.924;5.328;2023-03-21T05:39:57;10.90;99.90
18541;DHT22;9400;50.924;5.328;2023-03-21T05:42:25;11.00;99.90
18541;DHT22;9400;50.924;5.328;2023-03-21T05:44:52;10.90;99.90
18541;DHT22;9400;50.924;5.328;2023-03-21T05:47:20;10.90;99.90
18541;DHT22;9400;50.924;5.328;2023-03-21T05:49:48;10.90;99.90
18541;DHT22;9400;50.924;5.328;2023-03-21T05:52:16;10.80;99.90
18541;DHT22;9400;50.924;5.328;2023-03-21T05:54:44;10.80;99.90
18541;DHT22;9400;50.924;5.328;2023-03-21T05:57:12;10.90;99.90
18541;DHT22;9400;50.924;5.328;2023-03-21T05:59:39;10.80;99.90
18541;DHT22;9400;50.924;5.328;2023-03-21T06:02:06;10.90;99.90
18541;DHT22;9400;50.924;5.328;2023-03-21T06:04:33;10.90;99.90
18541;DHT22;9400;50.924;5.328;2023-03-21T06:07:01;10.90;99.90
18541;DHT22;9400;50.924;5.328;2023-03-21T06:09:29;10.90;99.90
18541;DHT22;9400;50.924;5.328;2023-03-21T06:11:58;10.90;99.90
18541;DHT22;9400;50.924;5.328;2023-03-21T06:14:25;10.90;99.90
18541;DHT22;9400;50.924;5.328;2023-03-21T06:16:52;10.90;99.90
18541;DHT22;9400;50.924;5.328;2023-03-21T06:19:20;10.90;99.90
18541;DHT22;9400;50.924;5.328;2023-03-21T06:21:48;10.90;99.90
18541;DHT22;9400;50.924;5.328;2023-03-21T06:24:15;10.80;99.90
18541;DHT22;9400;50.924;5.328;2023-03-21T06:26:44;10.90;99.90
18541;DHT22;9400;50.924;5.328;2023-03-21T06:29:14;10.80;99.90
18541;DHT22;9400;50.924;5.328;2023-03-21T06:31:42;10.90;99.90
18541;DHT22;9400;50.924;5.328;2023-03-21T06:34:10;10.90;99.90
18541;DHT22;9400;50.924;5.328;2023-03-21T06:36:37;10.90;99.90
18541;DHT22;9400;50.924;5.328;2023-03-21T06:39:05;10.90;99.90
18541;DHT22;9400;50.924;5.328;2023-03-21T06:41:33;10.90;99.90
18541;DHT22;9400;50.924;5.328;2023-03-21T06:44:01;10.90;99.90
18541;DHT22;9400;50.924;5.328;2023-03-21T06:46:29;10.90;99.90
18541;DHT22;9400;50.924;5.328;2023-03-21T06:48:57;10.90;99.90
18541;DHT22;9400;50.924;5.328;2023-03-21T06:51:25;11.00;99.90
18541;DHT22;9400;50.924;5.328;2023-03-21T06:53:52;11.00;99.90
18541;DHT22;9400;50.924;5.328;2023-03-21T06:56:19;11.00;99.90
18541;DHT22;9400;50.924;5.328;2023-03-21T06:58:47;11.00;99.90
18541;DHT22;9400;50.924;5.328;2023-03-21T07:01:15;11.00;99.90
18541;DHT22;9400;50.924;5.328;2023-03-21T07:03:44;11.00;99.90
18541;DHT22;9400;50.924;5.328;2023-03-21T07:06:11;11.00;99.90
18541;DHT22;9400;50.924;5.328;2023-03-21T07:08:39;11.00;99.90
18541;DHT22;9400;50.924;5.328;2023-03-21T07:11:07;11.00;99.90
18541;DHT22;9400;50.924;5.328;2023-03-21T07:13:35;11.00;99.90
18541;DHT22;9400;50.924;5.328;2023-03-21T07:16:04;11.00;99.90
18541;DHT22;9400;50.924;5.328;2023-03-21T07:18:32;11.00;99.90
18541;DHT22;9400;50.924;5.328;2023-03-21T07:21:00;11.10;99.90
18541;DHT22;9400;50.924;5.328;2023-03-21T07:23:28;11.10;99.90
18541;DHT22;9400;50.924;5.328;2023-03-21T07:25:56;11.10;99.90
18541;DHT22;9400;50.924;5.328;2023-03-21T07:28:24;11.10;99.90
18541;DHT22;9400;50.924;5.328;2023-03-21T07:30:53;11.10;99.90
18541;DHT22;9400;50.924;5.328;2023-03-21T07:33:21;11.10;99.90
18541;DHT22;9400;50.924;5.328;2023-03-21T07:35:50;11.10;99.90
18541;DHT22;9400;50.924;5.328;2023-03-21T07:38:20;11.10;99.90
18541;DHT22;9400;50.924;5.328;2023-03-21T07:40:47;11.10;99.90
18541;DHT22;9400;50.924;5.328;2023-03-21T07:43:16;11.10;99.90
18541;DHT22;9400;50.924;5.328;2023-03-21T07:45:46;11.10;99.90
18541;DHT22;9400;50.924;5.328;2023-03-21T07:48:14;11.10;99.90
18541;DHT22;9400;50.924;5.328;2023-03-21T07:50:43;11.10;99.90
18541;DHT22;9400;50.924;5.328;2023-03-21T07:53:10;11.10;99.90
18541;DHT22;9400;50.924;5.328;2023-03-21T07:55:39;11.10;99.90
18541;DHT22;9400;50.924;5.328;2023-03-21T07:58:06;11.10;99.90
18541;DHT22;9400;50.924;5.328;2023-03-21T08:00:34;11.10;99.90
18541;DHT22;9400;50.924;5.328;2023-03-21T08:03:01;11.10;99.90
18541;DHT22;9400;50.924;5.328;2023-03-21T08:05:33;11.10;99.90
18541;DHT22;9400;50.924;5.328;2023-03-21T08:08:01;11.20;99.90
18541;DHT22;9400;50.924;5.328;2023-03-21T08:10:28;11.10;99.90
18541;DHT22;9400;50.924;5.328;2023-03-21T08:12:57;11.20;99.90
18541;DHT22;9400;50.924;5.328;2023-03-21T08:15:25;11.00;99.90
18541;DHT22;9400;50.924;5.328;2023-03-21T08:17:52;11.00;99.90
18541;DHT22;9400;50.924;5.328;2023-03-21T08:20:21;11.00;99.90
18541;DHT22;9400;50.924;5.328;2023-03-21T08:22:49;11.00;99.90
18541;DHT22;9400;50.924;5.328;2023-03-21T08:25:18;11.00;99.90
18541;DHT22;9400;50.924;5.328;2023-03-21T08:27:47;11.10;99.90
18541;DHT22;9400;50.924;5.328;2023-03-21T08:30:18;11.10;99.90
18541;DHT22;9400;50.924;5.328;2023-03-21T08:32:45;11.20;99.90
18541;DHT22;9400;50.924;5.328;2023-03-21T08:35:15;11.20;99.90
18541;DHT22;9400;50.924;5.328;2023-03-21T08:37:43;11.30;99.90
18541;DHT22;9400;50.924;5.328;2023-03-21T08:40:13;11.40;99.90
18541;DHT22;9400;50.924;5.328;2023-03-21T08:42:41;11.40;99.90
18541;DHT22;9400;50.924;5.328;2023-03-21T08:45:10;11.50;99.90
18541;DHT22;9400;50.924;5.328;2023-03-21T08:47:40;11.50;99.90
18541;DHT22;9400;50.924;5.328;2023-03-21T08:50:08;11.50;99.90
18541;DHT22;9400;50.924;5.328;2023-03-21T08:52:37;11.60;99.90
18541;DHT22;9400;50.924;5.328;2023-03-21T08:55:06;11.60;99.90
18541;DHT22;9400;50.924;5.328;2023-03-21T08:57:34;11.70;99.90
18541;DHT22;9400;50.924;5.328;2023-03-21T09:00:02;11.70;99.90
18541;DHT22;9400;50.924;5.328;2023-03-21T09:02:39;11.90;99.90
18541;DHT22;9400;50.924;5.328;2023-03-21T09:05:07;12.10;99.90
18541;DHT22;9400;50.924;5.328;2023-03-21T09:07:37;12.00;99.90
18541;DHT22;9400;50.924;5.328;2023-03-21T09:10:06;12.00;99.90
18541;DHT22;9400;50.924;5.328;2023-03-21T09:12:35;12.20;99.90
18541;DHT22;9400;50.924;5.328;2023-03-21T09:15:03;12.30;99.90
18541;DHT22;9400;50.924;5.328;2023-03-21T09:17:32;12.30;99.90
18541;DHT22;9400;50.924;5.328;2023-03-21T09:20:01;12.40;99.90
18541;DHT22;9400;50.924;5.328;2023-03-21T09:22:36;12.30;99.90
18541;DHT22;9400;50.924;5.328;2023-03-21T09:25:05;12.30;99.90
18541;DHT22;9400;50.924;5.328;2023-03-21T13:13:47;16.20;99.90
18541;DHT22;9400;50.924;5.328;2023-03-21T13:16:20;16.80;99.90
18541;DHT22;9400;50.924;5.328;2023-03-21T13:19:01;16.70;99.90
18541;DHT22;9400;50.924;5.328;2023-03-21T18:49:42;13.60;99.90
18541;DHT22;9400;50.924;5.328;2023-03-21T18:52:12;13.60;99.90
18541;DHT22;9400;50.924;5.328;2023-03-21T18:54:40;13.60;99.90
18541;DHT22;9400;50.924;5.328;2023-03-21T18:57:07;13.60;99.90
18541;DHT22;9400;50.924;5.328;2023-03-21T18:59:35;13.60;99.90
18541;DHT22;9400;50.924;5.328;2023-03-21T19:02:04;13.60;99.90
18541;DHT22;9400;50.924;5.328;2023-03-21T19:04:33;13.50;99.90
18541;DHT22;9400;50.924;5.328;2023-03-21T19:07:02;13.40;99.90
18541;DHT22;9400;50.924;5.328;2023-03-21T19:09:29;13.40;99.90
18541;DHT22;9400;50.924;5.328;2023-03-21T19:11:59;13.40;99.90
18541;DHT22;9400;50.924;5.328;2023-03-21T19:14:27;13.40;99.90
18541;DHT22;9400;50.924;5.328;2023-03-21T19:16:55;13.40;99.90
18541;DHT22;9400;50.924;5.328;2023-03-21T19:19:24;13.40;99.90
18541;DHT22;9400;50.924;5.328;2023-03-21T19:21:51;13.40;99.90
18541;DHT22;9400;50.924;5.328;2023-03-21T19:24:22;13.40;99.90
18541;DHT22;9400;50.924;5.328;2023-03-21T19:26:49;13.40;99.90
18541;DHT22;9400;50.924;5.328;2023-03-21T19:29:17;13.40;99.90
18541;DHT22;9400;50.924;5.328;2023-03-21T19:31:45;13.30;99.90
18541;DHT22;9400;50.924;5.328;2023-03-21T19:34:14;13.30;99.90
18541;DHT22;9400;50.924;5.328;2023-03-21T19:36:42;13.30;99.90
18541;DHT22;9400;50.924;5.328;2023-03-21T19:39:10;13.20;99.90
18541;DHT22;9400;50.924;5.328;2023-03-21T19:41:39;13.30;99.90
18541;DHT22;9400;50.924;5.328;2023-03-21T19:44:07;13.30;99.90
18541;DHT22;9400;50.924;5.328;2023-03-21T19:46:34;13.30;99.90
18541;DHT22;9400;50.924;5.328;2023-03-21T19:49:02;13.30;99.90
18541;DHT22;9400;50.924;5.328;2023-03-21T19:51:30;13.30;99.90
18541;DHT22;9400;50.924;5.328;2023-03-21T19:53:58;13.30;99.90
18541;DHT22;9400;50.924;5.328;2023-03-21T19:56:26;13.30;99.90
18541;DHT22;9400;50.924;5.328;2023-03-21T19:58:58;13.20;99.90
18541;DHT22;9400;50.924;5.328;2023-03-21T20:01:27;13.20;99.90
18541;DHT22;9400;50.924;5.328;2023-03-21T20:03:56;13.30;99.90
18541;DHT22;9400;50.924;5.328;2023-03-21T20:06:24;13.30;99.90
18541;DHT22;9400;50.924;5.328;2023-03-21T20:08:55;13.30;99.90
18541;DHT22;9400;50.924;5.328;2023-03-21T20:11:22;13.30;99.90
18541;DHT22;9400;50.924;5.328;2023-03-21T20:13:53;13.30;99.90
18541;DHT22;9400;50.924;5.328;2023-03-21T20:16:23;13.30;99.90
18541;DHT22;9400;50.924;5.328;2023-03-21T20:18:50;13.30;99.90
18541;DHT22;9400;50.924;5.328;2023-03-21T20:21:17;13.30;99.90
18541;DHT22;9400;50.924;5.328;2023-03-21T20:23:45;13.30;99.90
18541;DHT22;9400;50.924;5.328;2023-03-21T20:26:14;13.30;99.90
18541;DHT22;9400;50.924;5.328;2023-03-21T20:28:42;13.30;99.90
18541;DHT22;9400;50.924;5.328;2023-03-21T20:31:13;13.30;99.90
18541;DHT22;9400;50.924;5.328;2023-03-21T20:33:43;13.30;99.90
18541;DHT22;9400;50.924;5.328;2023-03-21T20:36:11;13.30;99.90
18541;DHT22;9400;50.924;5.328;2023-03-21T20:38:38;13.30;99.90
18541;DHT22;9400;50.924;5.328;2023-03-21T20:41:06;13.30;99.90
18541;DHT22;9400;50.924;5.328;2023-03-21T20:43:34;13.20;99.90
18541;DHT22;9400;50.924;5.328;2023-03-21T20:46:02;13.20;99.90
18541;DHT22;9400;50.924;5.328;2023-03-21T20:48:30;13.30;99.90
18541;DHT22;9400;50.924;5.328;2023-03-21T20:51:04;13.20;99.90
18541;DHT22;9400;50.924;5.328;2023-03-21T20:53:33;13.30;99.90
18541;DHT22;9400;50.924;5.328;2023-03-21T20:56:01;13.30;99.90
18541;DHT22;9400;50.924;5.328;2023-03-21T20:58:28;13.30;99.90
18541;DHT22;9400;50.924;5.328;2023-03-21T21:00:57;13.20;99.90
18541;DHT22;9400;50.924;5.328;2023-03-21T21:03:29;13.20;99.90
18541;DHT22;9400;50.924;5.328;2023-03-21T21:06:11;13.20;99.90
18541;DHT22;9400;50.924;5.328;2023-03-21T21:08:39;13.20;99.90
18541;DHT22;9400;50.924;5.328;2023-03-21T21:11:07;13.20;99.90
18541;DHT22;9400;50.924;5.328;2023-03-21T21:13:35;13.20;99.90
18541;DHT22;9400;50.924;5.328;2023-03-21T21:16:03;13.20;99.90
18541;DHT22;9400;50.924;5.328;2023-03-21T21:18:31;13.30;99.90
18541;DHT22;9400;50.924;5.328;2023-03-21T21:20:59;13.10;99.90
18541;DHT22;9400;50.924;5.328;2023-03-21T21:23:34;13.10;99.90
18541;DHT22;9400;50.924;5.328;2023-03-21T21:26:05;13.20;99.90
18541;DHT22;9400;50.924;5.328;2023-03-21T21:28:34;13.10;99.90
18541;DHT22;9400;50.924;5.328;2023-03-21T21:31:07;13.20;99.90
18541;DHT22;9400;50.924;5.328;2023-03-21T21:33:36;13.20;99.90
18541;DHT22;9400;50.924;5.328;2023-03-21T21:36:05;13.20;99.90
18541;DHT22;9400;50.924;5.328;2023-03-21T21:38:35;13.20;99.90
18541;DHT22;9400;50.924;5.328;2023-03-21T21:41:03;13.20;99.90
18541;DHT22;9400;50.924;5.328;2023-03-21T21:43:31;13.20;99.90
18541;DHT22;9400;50.924;5.328;2023-03-21T21:45:59;13.20;99.90
18541;DHT22;9400;50.924;5.328;2023-03-21T21:48:27;13.20;99.90
18541;DHT22;9400;50.924;5.328;2023-03-21T21:50:54;13.20;99.90
18541;DHT22;9400;50.924;5.328;2023-03-21T21:53:21;13.20;99.90
18541;DHT22;9400;50.924;5.328;2023-03-21T21:55:54;13.10;99.90
18541;DHT22;9400;50.924;5.328;2023-03-21T21:58:22;13.10;99.90
18541;DHT22;9400;50.924;5.328;2023-03-21T22:00:50;13.10;99.90
18541;DHT22;9400;50.924;5.328;2023-03-21T22:03:19;13.00;99.90
18541;DHT22;9400;50.924;5.328;2023-03-21T22:05:47;13.00;99.90
18541;DHT22;9400;50.924;5.328;2023-03-21T22:08:14;13.10;99.90
18541;DHT22;9400;50.924;5.328;2023-03-21T22:10:43;13.10;99.90
18541;DHT22;9400;50.924;5.328;2023-03-21T22:13:27;13.10;99.90
18541;DHT22;9400;50.924;5.328;2023-03-21T22:15:54;13.10;99.90
18541;DHT22;9400;50.924;5.328;2023-03-21T22:18:22;13.10;99.90
18541;DHT22;9400;50.924;5.328;2023-03-21T22:20:49;13.10;99.90
18541;DHT22;9400;50.924;5.328;2023-03-21T22:23:17;13.10;99.90
18541;DHT22;9400;50.924;5.328;2023-03-21T22:25:49;13.10;99.90
18541;DHT22;9400;50.924;5.328;2023-03-21T22:28:17;13.10;99.90
18541;DHT22;9400;50.924;5.328;2023-03-21T22:30:48;13.10;99.90
18541;DHT22;9400;50.924;5.328;2023-03-21T22:33:15;13.00;99.90
18541;DHT22;9400;50.924;5.328;2023-03-21T22:35:44;13.00;99.90
18541;DHT22;9400;50.924;5.328;2023-03-21T22:38:12;13.00;99.90
18541;DHT22;9400;50.924;5.328;2023-03-21T22:40:42;13.00;99.90
18541;DHT22;9400;50.924;5.328;2023-03-21T22:43:10;13.00;99.90
18541;DHT22;9400;50.924;5.328;2023-03-21T22:45:37;13.00;99.90
18541;DHT22;9400;50.924;5.328;2023-03-21T22:48:06;13.00;99.90
18541;DHT22;9400;50.924;5.328;2023-03-21T22:50:33;13.00;99.90
18541;DHT22;9400;50.924;5.328;2023-03-21T22:53:01;13.00;99.90
18541;DHT22;9400;50.924;5.328;2023-03-21T22:55:28;13.00;99.90
18541;DHT22;9400;50.924;5.328;2023-03-21T22:57:56;13.00;99.90
18541;DHT22;9400;50.924;5.328;2023-03-21T23:00:24;12.90;99.90
18541;DHT22;9400;50.924;5.328;2023-03-21T23:02:51;13.00;99.90
18541;DHT22;9400;50.924;5.328;2023-03-21T23:05:21;12.90;99.90
18541;DHT22;9400;50.924;5.328;2023-03-21T23:07:48;12.90;99.90
18541;DHT22;9400;50.924;5.328;2023-03-21T23:10:16;12.90;99.90
18541;DHT22;9400;50.924;5.328;2023-03-21T23:12:43;12.80;99.90
18541;DHT22;9400;50.924;5.328;2023-03-21T23:15:11;12.80;99.90
18541;DHT22;9400;50.924;5.328;2023-03-21T23:17:39;12.70;99.90
18541;DHT22;9400;50.924;5.328;2023-03-21T23:20:09;12.60;99.90
18541;DHT22;9400;50.924;5.328;2023-03-21T23:22:40;12.50;99.90
18541;DHT22;9400;50.924;5.328;2023-03-21T23:25:08;12.50;99.90
18541;DHT22;9400;50.924;5.328;2023-03-21T23:27:36;12.40;99.90
18541;DHT22;9400;50.924;5.328;2023-03-21T23:30:06;12.40;99.90
18541;DHT22;9400;50.924;5.328;2023-03-21T23:32:33;12.30;99.90
18541;DHT22;9400;50.924;5.328;2023-03-21T23:35:01;12.40;99.90
18541;DHT22;9400;50.924;5.328;2023-03-21T23:37:28;12.30;99.90
18541;DHT22;9400;50.924;5.328;2023-03-21T23:39:58;12.30;99.90
18541;DHT22;9400;50.924;5.328;2023-03-21T23:42:28;12.40;99.90
18541;DHT22;9400;50.924;5.328;2023-03-21T23:44:55;12.30;99.90
18541;DHT22;9400;50.924;5.328;2023-03-21T23:47:23;12.20;99.90
18541;DHT22;9400;50.924;5.328;2023-03-21T23:49:50;12.10;99.90
18541;DHT22;9400;50.924;5.328;2023-03-21T23:52:18;12.10;99.90
18541;DHT22;9400;50.924;5.328;2023-03-21T23:54:45;12.00;99.90
18541;DHT22;9400;50.924;5.328;2023-03-21T23:57:14;12.00;99.90
18541;DHT22;9400;50.924;5.328;2023-03-21T23:59:42;11.90;99.90
